sensor_id;sensor_type;location;lat;lon;timestamp;pressure;altitude;pressure_sealevel;temperature;humidity
28628;BME280;15815;46.760;19.604;2023-08-01T00:01:16;99818.75;;;18.07;71.48
28628;BME280;15815;46.760;19.604;2023-08-01T00:03:41;99808.44;;;17.91;69.85
28628;BME280;15815;46.760;19.604;2023-08-01T00:06:07;99803.31;;;17.77;69.26
28628;BME280;15815;46.760;19.604;2023-08-01T00:08:33;99796.34;;;17.69;69.87
28628;BME280;15815;46.760;19.604;2023-08-01T00:10:59;99809.31;;;17.79;70.19
28628;BME280;15815;46.760;19.604;2023-08-01T00:13:24;99805.03;;;17.74;70.66
28628;BME280;15815;46.760;19.604;2023-08-01T00:15:50;99785.09;;;17.65;71.11
28628;BME280;15815;46.760;19.604;2023-08-01T00:18:15;99804.00;;;17.81;72.96
28628;BME280;15815;46.760;19.604;2023-08-01T00:20:41;99794.28;;;17.69;71.36
28628;BME280;15815;46.760;19.604;2023-08-01T00:23:07;99793.66;;;17.74;72.08
28628;BME280;15815;46.760;19.604;2023-08-01T00:25:32;99768.16;;;17.61;71.11
28628;BME280;15815;46.760;19.604;2023-08-01T00:27:58;99790.66;;;17.69;72.48
28628;BME280;15815;46.760;19.604;2023-08-01T00:30:24;99780.47;;;17.58;71.26
28628;BME280;15815;46.760;19.604;2023-08-01T00:32:49;99788.53;;;17.60;71.48
28628;BME280;15815;46.760;19.604;2023-08-01T00:35:15;99769.50;;;17.48;71.73
28628;BME280;15815;46.760;19.604;2023-08-01T00:37:40;99742.47;;;17.34;71.95
28628;BME280;15815;46.760;19.604;2023-08-01T00:40:06;99759.25;;;17.50;71.01
28628;BME280;15815;46.760;19.604;2023-08-01T00:42:35;99776.19;;;17.54;71.95
28628;BME280;15815;46.760;19.604;2023-08-01T00:45:01;99768.72;;;17.47;73.47
28628;BME280;15815;46.760;19.604;2023-08-01T00:47:27;99763.81;;;17.48;72.12
28628;BME280;15815;46.760;19.604;2023-08-01T00:49:52;99765.41;;;17.49;72.22
28628;BME280;15815;46.760;19.604;2023-08-01T00:52:18;99762.72;;;17.45;72.26
28628;BME280;15815;46.760;19.604;2023-08-01T00:54:44;99756.56;;;17.47;72.04
28628;BME280;15815;46.760;19.604;2023-08-01T00:57:10;99763.97;;;17.44;72.54
28628;BME280;15815;46.760;19.604;2023-08-01T00:59:36;99754.19;;;17.45;72.38
28628;BME280;15815;46.760;19.604;2023-08-01T01:02:01;99747.06;;;17.41;73.26
28628;BME280;15815;46.760;19.604;2023-08-01T01:04:30;99750.97;;;17.34;72.64
28628;BME280;15815;46.760;19.604;2023-08-01T01:07:02;99750.97;;;17.34;72.72
28628;BME280;15815;46.760;19.604;2023-08-01T01:09:30;99743.38;;;17.31;72.41
28628;BME280;15815;46.760;19.604;2023-08-01T01:11:56;99756.06;;;17.39;73.69
28628;BME280;15815;46.760;19.604;2023-08-01T01:14:22;99763.59;;;17.33;73.78
28628;BME280;15815;46.760;19.604;2023-08-01T01:16:48;99745.75;;;17.33;72.93
28628;BME280;15815;46.760;19.604;2023-08-01T01:19:13;99751.59;;;17.29;73.04
28628;BME280;15815;46.760;19.604;2023-08-01T01:21:40;99735.88;;;17.15;72.70
28628;BME280;15815;46.760;19.604;2023-08-01T01:24:10;99749.47;;;17.20;72.32
28628;BME280;15815;46.760;19.604;2023-08-01T01:26:36;99717.00;;;16.99;73.45
28628;BME280;15815;46.760;19.604;2023-08-01T01:29:03;99748.41;;;17.27;74.45
28628;BME280;15815;46.760;19.604;2023-08-01T01:31:30;99724.00;;;17.08;73.33
28628;BME280;15815;46.760;19.604;2023-08-01T01:33:57;99732.69;;;17.13;73.27
28628;BME280;15815;46.760;19.604;2023-08-01T01:36:23;99700.63;;;17.04;74.35
28628;BME280;15815;46.760;19.604;2023-08-01T01:38:48;99729.13;;;17.22;73.40
28628;BME280;15815;46.760;19.604;2023-08-01T01:41:14;99726.59;;;17.24;74.95
28628;BME280;15815;46.760;19.604;2023-08-01T01:43:40;99736.59;;;17.28;75.02
28628;BME280;15815;46.760;19.604;2023-08-01T01:46:05;99725.94;;;17.20;74.49
28628;BME280;15815;46.760;19.604;2023-08-01T01:48:30;99727.69;;;17.17;73.95
28628;BME280;15815;46.760;19.604;2023-08-01T01:50:56;99714.38;;;17.05;74.28
28628;BME280;15815;46.760;19.604;2023-08-01T01:53:21;99713.44;;;17.08;74.32
28628;BME280;15815;46.760;19.604;2023-08-01T01:55:47;99714.09;;;17.12;74.55
28628;BME280;15815;46.760;19.604;2023-08-01T01:58:12;99725.06;;;17.01;75.16
28628;BME280;15815;46.760;19.604;2023-08-01T02:00:38;99701.94;;;16.90;74.50
28628;BME280;15815;46.760;19.604;2023-08-01T02:03:03;99705.91;;;16.92;73.82
28628;BME280;15815;46.760;19.604;2023-08-01T02:05:29;99702.22;;;16.83;74.58
28628;BME280;15815;46.760;19.604;2023-08-01T02:07:55;99691.28;;;16.72;74.29
28628;BME280;15815;46.760;19.604;2023-08-01T02:10:21;99713.75;;;16.88;74.38
28628;BME280;15815;46.760;19.604;2023-08-01T02:12:46;99689.09;;;16.76;74.69
28628;BME280;15815;46.760;19.604;2023-08-01T02:15:12;99693.66;;;16.74;74.38
28628;BME280;15815;46.760;19.604;2023-08-01T02:17:37;99707.09;;;16.82;74.49
28628;BME280;15815;46.760;19.604;2023-08-01T02:20:03;99697.59;;;16.76;76.02
28628;BME280;15815;46.760;19.604;2023-08-01T02:22:28;99681.50;;;16.73;75.07
28628;BME280;15815;46.760;19.604;2023-08-01T02:24:54;99694.31;;;16.78;75.97
28628;BME280;15815;46.760;19.604;2023-08-01T02:27:22;99700.78;;;16.78;75.60
28628;BME280;15815;46.760;19.604;2023-08-01T02:29:48;99695.00;;;16.69;76.02
28628;BME280;15815;46.760;19.604;2023-08-01T02:32:13;99701.56;;;16.79;75.83
28628;BME280;15815;46.760;19.604;2023-08-01T02:34:39;99690.38;;;16.62;74.78
28628;BME280;15815;46.760;19.604;2023-08-01T02:37:05;99697.69;;;16.51;74.75
28628;BME280;15815;46.760;19.604;2023-08-01T02:39:31;99685.69;;;16.47;75.20
28628;BME280;15815;46.760;19.604;2023-08-01T02:41:56;99708.06;;;16.66;76.77
28628;BME280;15815;46.760;19.604;2023-08-01T02:44:25;99712.59;;;16.64;76.43
28628;BME280;15815;46.760;19.604;2023-08-01T02:46:51;99702.91;;;16.52;76.10
28628;BME280;15815;46.760;19.604;2023-08-01T02:49:16;99701.84;;;16.59;76.12
28628;BME280;15815;46.760;19.604;2023-08-01T02:51:42;99709.66;;;16.67;76.01
28628;BME280;15815;46.760;19.604;2023-08-01T02:54:07;99700.78;;;16.65;76.56
28628;BME280;15815;46.760;19.604;2023-08-01T02:56:33;99702.19;;;16.61;76.16
28628;BME280;15815;46.760;19.604;2023-08-01T02:58:58;99692.69;;;16.55;75.58
28628;BME280;15815;46.760;19.604;2023-08-01T03:01:24;99678.81;;;16.57;75.96
28628;BME280;15815;46.760;19.604;2023-08-01T03:03:49;99671.84;;;16.49;76.53
28628;BME280;15815;46.760;19.604;2023-08-01T03:06:15;99692.41;;;16.62;75.68
28628;BME280;15815;46.760;19.604;2023-08-01T03:08:40;99688.59;;;16.56;76.12
28628;BME280;15815;46.760;19.604;2023-08-01T03:11:06;99687.94;;;16.52;76.24
28628;BME280;15815;46.760;19.604;2023-08-01T03:13:31;99686.47;;;16.47;76.49
28628;BME280;15815;46.760;19.604;2023-08-01T03:15:57;99680.13;;;16.43;76.01
28628;BME280;15815;46.760;19.604;2023-08-01T03:18:22;99690.78;;;16.52;76.24
28628;BME280;15815;46.760;19.604;2023-08-01T03:20:48;99661.25;;;16.27;75.42
28628;BME280;15815;46.760;19.604;2023-08-01T03:23:14;99676.25;;;16.50;76.60
28628;BME280;15815;46.760;19.604;2023-08-01T03:25:40;99669.59;;;16.44;76.56
28628;BME280;15815;46.760;19.604;2023-08-01T03:28:05;99666.78;;;16.31;76.34
28628;BME280;15815;46.760;19.604;2023-08-01T03:30:32;99669.97;;;16.33;77.04
28628;BME280;15815;46.760;19.604;2023-08-01T03:32:57;99674.91;;;16.42;76.30
28628;BME280;15815;46.760;19.604;2023-08-01T03:35:23;99687.13;;;16.51;76.36
28628;BME280;15815;46.760;19.604;2023-08-01T03:37:48;99682.44;;;16.57;76.77
28628;BME280;15815;46.760;19.604;2023-08-01T03:40:14;99670.25;;;16.48;77.30
28628;BME280;15815;46.760;19.604;2023-08-01T03:42:39;99664.81;;;16.41;76.58
28628;BME280;15815;46.760;19.604;2023-08-01T03:45:08;99673.28;;;16.53;77.37
28628;BME280;15815;46.760;19.604;2023-08-01T03:47:34;99681.19;;;16.58;76.62
28628;BME280;15815;46.760;19.604;2023-08-01T03:49:59;99690.69;;;16.64;76.80
28628;BME280;15815;46.760;19.604;2023-08-01T03:52:24;99691.88;;;16.54;76.59
28628;BME280;15815;46.760;19.604;2023-08-01T03:54:54;99678.16;;;16.53;76.32
28628;BME280;15815;46.760;19.604;2023-08-01T03:57:19;99687.94;;;16.52;76.19
28628;BME280;15815;46.760;19.604;2023-08-01T03:59:48;99686.88;;;16.58;76.76
28628;BME280;15815;46.760;19.604;2023-08-01T04:02:13;99684.03;;;16.71;76.53
28628;BME280;15815;46.760;19.604;2023-08-01T04:04:39;99674.44;;;16.78;76.52
28628;BME280;15815;46.760;19.604;2023-08-01T04:07:04;99678.97;;;16.97;76.25
28628;BME280;15815;46.760;19.604;2023-08-01T04:09:31;99682.00;;;17.03;75.96
28628;BME280;15815;46.760;19.604;2023-08-01T04:11:56;99672.59;;;17.15;76.27
28628;BME280;15815;46.760;19.604;2023-08-01T04:14:22;99679.00;;;17.28;75.20
28628;BME280;15815;46.760;19.604;2023-08-01T04:16:48;99678.25;;;17.37;75.30
28628;BME280;15815;46.760;19.604;2023-08-01T04:19:13;99672.13;;;17.47;75.06
28628;BME280;15815;46.760;19.604;2023-08-01T04:21:38;99671.63;;;17.40;75.38
28628;BME280;15815;46.760;19.604;2023-08-01T04:24:04;99668.06;;;17.57;75.05
28628;BME280;15815;46.760;19.604;2023-08-01T04:26:30;99670.19;;;17.75;74.57
28628;BME280;15815;46.760;19.604;2023-08-01T04:28:55;99665.19;;;17.98;73.80
28628;BME280;15815;46.760;19.604;2023-08-01T04:31:21;99668.88;;;18.53;73.29
28628;BME280;15815;46.760;19.604;2023-08-01T04:33:46;99675.97;;;18.85;73.79
28628;BME280;15815;46.760;19.604;2023-08-01T04:36:12;99659.94;;;19.15;73.48
28628;BME280;15815;46.760;19.604;2023-08-01T04:38:37;99669.22;;;19.76;73.74
28628;BME280;15815;46.760;19.604;2023-08-01T04:41:03;99661.53;;;20.15;74.24
28628;BME280;15815;46.760;19.604;2023-08-01T04:43:28;99673.91;;;20.60;74.22
28628;BME280;15815;46.760;19.604;2023-08-01T04:45:55;99659.25;;;20.96;72.17
28628;BME280;15815;46.760;19.604;2023-08-01T04:48:21;99644.00;;;21.14;73.92
28628;BME280;15815;46.760;19.604;2023-08-01T04:50:46;99665.50;;;21.74;73.71
28628;BME280;15815;46.760;19.604;2023-08-01T04:53:12;99662.03;;;22.20;74.24
28628;BME280;15815;46.760;19.604;2023-08-01T04:55:41;99663.38;;;22.71;74.49
28628;BME280;15815;46.760;19.604;2023-08-01T04:58:06;99660.06;;;22.98;73.04
28628;BME280;15815;46.760;19.604;2023-08-01T05:00:32;99650.09;;;23.20;71.02
28628;BME280;15815;46.760;19.604;2023-08-01T05:02:57;99659.91;;;23.39;69.08
28628;BME280;15815;46.760;19.604;2023-08-01T05:05:23;99653.63;;;23.66;67.34
28628;BME280;15815;46.760;19.604;2023-08-01T05:07:48;99634.78;;;23.28;62.99
28628;BME280;15815;46.760;19.604;2023-08-01T05:10:15;99665.22;;;23.83;65.22
28628;BME280;15815;46.760;19.604;2023-08-01T05:12:40;99666.81;;;24.32;63.66
28628;BME280;15815;46.760;19.604;2023-08-01T05:15:06;99665.16;;;24.80;62.03
28628;BME280;15815;46.760;19.604;2023-08-01T05:17:32;99658.94;;;25.04;62.43
28628;BME280;15815;46.760;19.604;2023-08-01T05:19:57;99617.91;;;25.09;60.25
28628;BME280;15815;46.760;19.604;2023-08-01T05:22:23;99647.97;;;25.58;57.20
28628;BME280;15815;46.760;19.604;2023-08-01T05:24:48;99655.53;;;25.95;57.98
28628;BME280;15815;46.760;19.604;2023-08-01T05:27:13;99657.84;;;26.13;57.09
28628;BME280;15815;46.760;19.604;2023-08-01T05:29:39;99652.69;;;25.78;54.36
28628;BME280;15815;46.760;19.604;2023-08-01T05:32:05;99646.78;;;26.23;53.48
28628;BME280;15815;46.760;19.604;2023-08-01T05:34:31;99647.03;;;26.25;51.47
28628;BME280;15815;46.760;19.604;2023-08-01T05:36:56;99647.41;;;26.68;49.92
28628;BME280;15815;46.760;19.604;2023-08-01T05:39:22;99648.97;;;27.10;53.50
28628;BME280;15815;46.760;19.604;2023-08-01T05:41:47;99633.91;;;27.28;52.97
28628;BME280;15815;46.760;19.604;2023-08-01T05:44:13;99650.47;;;27.82;50.05
28628;BME280;15815;46.760;19.604;2023-08-01T05:46:38;99655.97;;;27.86;49.56
28628;BME280;15815;46.760;19.604;2023-08-01T05:49:04;99657.75;;;27.59;47.48
28628;BME280;15815;46.760;19.604;2023-08-01T05:51:29;99655.72;;;27.84;48.38
28628;BME280;15815;46.760;19.604;2023-08-01T05:53:55;99663.34;;;28.54;48.18
28628;BME280;15815;46.760;19.604;2023-08-01T05:56:20;99639.63;;;28.37;45.76
28628;BME280;15815;46.760;19.604;2023-08-01T05:58:46;99657.34;;;28.90;46.09
28628;BME280;15815;46.760;19.604;2023-08-01T06:01:11;99667.06;;;29.24;46.21
28628;BME280;15815;46.760;19.604;2023-08-01T06:03:37;99649.94;;;29.27;44.92
28628;BME280;15815;46.760;19.604;2023-08-01T06:06:03;99641.19;;;29.64;43.33
28628;BME280;15815;46.760;19.604;2023-08-01T06:08:28;99651.94;;;29.50;41.63
28628;BME280;15815;46.760;19.604;2023-08-01T06:10:54;99647.47;;;30.08;43.13
28628;BME280;15815;46.760;19.604;2023-08-01T06:13:19;99646.75;;;29.75;41.92
28628;BME280;15815;46.760;19.604;2023-08-01T06:15:45;99650.53;;;29.06;41.07
28628;BME280;15815;46.760;19.604;2023-08-01T06:18:10;99639.50;;;28.67;41.78
28628;BME280;15815;46.760;19.604;2023-08-01T06:20:36;99650.00;;;28.89;40.62
28628;BME280;15815;46.760;19.604;2023-08-01T06:23:02;99640.78;;;28.90;42.33
28628;BME280;15815;46.760;19.604;2023-08-01T06:25:27;99639.16;;;29.59;41.09
28628;BME280;15815;46.760;19.604;2023-08-01T06:27:53;99646.56;;;30.00;39.87
28628;BME280;15815;46.760;19.604;2023-08-01T06:30:18;99627.84;;;30.01;38.62
28628;BME280;15815;46.760;19.604;2023-08-01T06:32:44;99624.06;;;30.32;39.00
28628;BME280;15815;46.760;19.604;2023-08-01T06:35:09;99642.88;;;30.52;38.12
28628;BME280;15815;46.760;19.604;2023-08-01T06:37:38;99649.59;;;30.47;38.45
28628;BME280;15815;46.760;19.604;2023-08-01T06:40:03;99653.53;;;30.84;37.25
28628;BME280;15815;46.760;19.604;2023-08-01T06:42:29;99655.44;;;31.15;38.27
28628;BME280;15815;46.760;19.604;2023-08-01T06:44:54;99647.19;;;31.19;37.70
28628;BME280;15815;46.760;19.604;2023-08-01T06:47:21;99654.09;;;31.29;38.10
28628;BME280;15815;46.760;19.604;2023-08-01T06:49:47;99641.41;;;31.40;37.47
28628;BME280;15815;46.760;19.604;2023-08-01T06:52:12;99652.47;;;32.12;36.52
28628;BME280;15815;46.760;19.604;2023-08-01T06:54:38;99660.88;;;32.59;36.61
28628;BME280;15815;46.760;19.604;2023-08-01T06:57:03;99639.28;;;32.83;36.04
28628;BME280;15815;46.760;19.604;2023-08-01T06:59:29;99656.38;;;32.86;36.42
28628;BME280;15815;46.760;19.604;2023-08-01T07:01:55;99664.00;;;32.97;36.40
28628;BME280;15815;46.760;19.604;2023-08-01T07:04:20;99656.41;;;32.94;35.81
28628;BME280;15815;46.760;19.604;2023-08-01T07:06:46;99657.31;;;33.56;35.11
28628;BME280;15815;46.760;19.604;2023-08-01T07:09:11;99638.69;;;33.51;34.45
28628;BME280;15815;46.760;19.604;2023-08-01T07:11:37;99654.22;;;33.92;34.41
28628;BME280;15815;46.760;19.604;2023-08-01T07:14:02;99649.16;;;34.07;33.41
28628;BME280;15815;46.760;19.604;2023-08-01T07:16:28;99632.47;;;34.00;33.73
28628;BME280;15815;46.760;19.604;2023-08-01T07:18:55;99648.56;;;33.63;34.30
28628;BME280;15815;46.760;19.604;2023-08-01T07:21:20;99645.28;;;33.59;33.38
28628;BME280;15815;46.760;19.604;2023-08-01T07:23:46;99648.38;;;34.15;34.06
28628;BME280;15815;46.760;19.604;2023-08-01T07:26:11;99649.00;;;33.90;33.03
28628;BME280;15815;46.760;19.604;2023-08-01T07:28:37;99630.09;;;33.23;33.41
28628;BME280;15815;46.760;19.604;2023-08-01T07:31:06;99636.72;;;33.38;33.07
28628;BME280;15815;46.760;19.604;2023-08-01T07:33:33;99636.34;;;33.72;33.97
28628;BME280;15815;46.760;19.604;2023-08-01T07:35:59;99624.50;;;33.86;33.07
28628;BME280;15815;46.760;19.604;2023-08-01T07:38:25;99620.81;;;34.00;32.18
28628;BME280;15815;46.760;19.604;2023-08-01T07:40:50;99619.59;;;34.26;31.30
28628;BME280;15815;46.760;19.604;2023-08-01T07:43:15;99620.00;;;34.07;31.83
28628;BME280;15815;46.760;19.604;2023-08-01T07:45:41;99617.31;;;34.02;32.93
28628;BME280;15815;46.760;19.604;2023-08-01T07:48:07;99604.91;;;34.57;31.94
28628;BME280;15815;46.760;19.604;2023-08-01T07:50:33;99611.09;;;35.09;31.41
28628;BME280;15815;46.760;19.604;2023-08-01T07:52:59;99623.59;;;34.54;31.30
28628;BME280;15815;46.760;19.604;2023-08-01T07:55:27;99609.66;;;34.77;30.47
28628;BME280;15815;46.760;19.604;2023-08-01T07:57:53;99619.94;;;35.51;29.45
28628;BME280;15815;46.760;19.604;2023-08-01T08:00:18;99620.38;;;34.27;30.54
28628;BME280;15815;46.760;19.604;2023-08-01T08:02:45;99627.69;;;34.51;30.44
28628;BME280;15815;46.760;19.604;2023-08-01T08:05:11;99603.63;;;35.15;30.48
28628;BME280;15815;46.760;19.604;2023-08-01T08:07:37;99611.34;;;35.53;30.57
28628;BME280;15815;46.760;19.604;2023-08-01T08:10:03;99609.91;;;35.86;29.79
28628;BME280;15815;46.760;19.604;2023-08-01T08:12:29;99611.59;;;35.72;30.21
28628;BME280;15815;46.760;19.604;2023-08-01T08:14:56;99617.38;;;35.55;29.72
28628;BME280;15815;46.760;19.604;2023-08-01T08:17:21;99600.22;;;34.61;30.68
28628;BME280;15815;46.760;19.604;2023-08-01T08:19:47;99607.16;;;34.10;31.24
28628;BME280;15815;46.760;19.604;2023-08-01T08:22:12;99613.78;;;35.14;30.55
28628;BME280;15815;46.760;19.604;2023-08-01T08:24:38;99611.03;;;35.16;30.22
28628;BME280;15815;46.760;19.604;2023-08-01T08:27:04;99587.03;;;34.93;30.43
28628;BME280;15815;46.760;19.604;2023-08-01T08:29:30;99613.03;;;35.39;29.01
28628;BME280;15815;46.760;19.604;2023-08-01T08:31:56;99598.63;;;35.58;28.80
28628;BME280;15815;46.760;19.604;2023-08-01T08:34:22;99602.63;;;34.88;30.25
28628;BME280;15815;46.760;19.604;2023-08-01T08:36:47;99604.00;;;34.31;30.62
28628;BME280;15815;46.760;19.604;2023-08-01T08:39:13;99589.47;;;34.71;30.46
28628;BME280;15815;46.760;19.604;2023-08-01T08:41:45;99585.91;;;35.46;29.61
28628;BME280;15815;46.760;19.604;2023-08-01T08:44:16;99587.94;;;35.36;29.62
28628;BME280;15815;46.760;19.604;2023-08-01T08:46:43;99593.78;;;35.78;29.70
28628;BME280;15815;46.760;19.604;2023-08-01T08:49:09;99582.94;;;35.96;28.13
28628;BME280;15815;46.760;19.604;2023-08-01T08:51:36;99565.84;;;35.67;28.21
28628;BME280;15815;46.760;19.604;2023-08-01T08:54:02;99586.34;;;35.84;28.86
28628;BME280;15815;46.760;19.604;2023-08-01T08:56:28;99583.78;;;36.58;27.76
28628;BME280;15815;46.760;19.604;2023-08-01T08:58:58;99584.03;;;36.52;28.32
28628;BME280;15815;46.760;19.604;2023-08-01T09:01:24;99576.47;;;36.93;28.43
28628;BME280;15815;46.760;19.604;2023-08-01T09:03:50;99571.94;;;37.09;27.26
28628;BME280;15815;46.760;19.604;2023-08-01T09:06:17;99581.47;;;37.73;27.08
28628;BME280;15815;46.760;19.604;2023-08-01T09:08:51;99558.88;;;37.57;26.01
28628;BME280;15815;46.760;19.604;2023-08-01T09:11:19;99581.97;;;37.43;27.40
28628;BME280;15815;46.760;19.604;2023-08-01T09:13:45;99574.63;;;36.71;27.77
28628;BME280;15815;46.760;19.604;2023-08-01T09:16:11;99572.66;;;37.27;27.14
28628;BME280;15815;46.760;19.604;2023-08-01T09:18:53;99571.72;;;37.71;26.08
28628;BME280;15815;46.760;19.604;2023-08-01T09:21:19;99574.09;;;36.65;26.67
28628;BME280;15815;46.760;19.604;2023-08-01T09:23:45;99571.59;;;36.34;27.53
28628;BME280;15815;46.760;19.604;2023-08-01T09:26:15;99560.47;;;36.15;27.55
28628;BME280;15815;46.760;19.604;2023-08-01T09:28:40;99564.25;;;36.43;27.26
28628;BME280;15815;46.760;19.604;2023-08-01T09:31:06;99561.38;;;36.97;27.17
28628;BME280;15815;46.760;19.604;2023-08-01T09:33:39;99557.94;;;37.54;26.11
28628;BME280;15815;46.760;19.604;2023-08-01T09:36:04;99550.34;;;37.05;26.54
28628;BME280;15815;46.760;19.604;2023-08-01T09:38:34;99549.28;;;37.10;26.19
28628;BME280;15815;46.760;19.604;2023-08-01T09:40:59;99537.56;;;37.10;26.26
28628;BME280;15815;46.760;19.604;2023-08-01T09:43:33;99530.72;;;37.81;26.67
28628;BME280;15815;46.760;19.604;2023-08-01T09:45:59;99550.97;;;37.40;25.72
28628;BME280;15815;46.760;19.604;2023-08-01T09:48:28;99529.09;;;37.14;25.86
28628;BME280;15815;46.760;19.604;2023-08-01T09:51:08;99529.84;;;36.78;25.94
28628;BME280;15815;46.760;19.604;2023-08-01T09:53:56;99540.00;;;37.31;26.57
28628;BME280;15815;46.760;19.604;2023-08-01T09:56:22;99529.88;;;37.14;26.35
28628;BME280;15815;46.760;19.604;2023-08-01T09:58:49;99530.97;;;36.82;26.30
28628;BME280;15815;46.760;19.604;2023-08-01T10:01:18;99515.63;;;37.01;26.69
28628;BME280;15815;46.760;19.604;2023-08-01T10:03:50;99513.34;;;37.09;25.74
28628;BME280;15815;46.760;19.604;2023-08-01T10:06:23;99504.16;;;36.86;26.84
28628;BME280;15815;46.760;19.604;2023-08-01T10:08:51;99493.19;;;38.27;25.73
28628;BME280;15815;46.760;19.604;2023-08-01T10:11:18;99491.03;;;37.99;26.33
28628;BME280;15815;46.760;19.604;2023-08-01T10:13:44;99497.03;;;37.72;24.72
28628;BME280;15815;46.760;19.604;2023-08-01T10:16:11;99507.69;;;37.21;25.24
28628;BME280;15815;46.760;19.604;2023-08-01T10:18:37;99485.88;;;37.41;25.33
28628;BME280;15815;46.760;19.604;2023-08-01T10:21:07;99485.94;;;37.80;26.27
28628;BME280;15815;46.760;19.604;2023-08-01T10:23:33;99486.41;;;37.86;24.70
28628;BME280;15815;46.760;19.604;2023-08-01T10:26:01;99482.22;;;37.80;25.00
28628;BME280;15815;46.760;19.604;2023-08-01T10:28:36;99461.97;;;36.18;27.05
28628;BME280;15815;46.760;19.604;2023-08-01T10:31:11;99462.56;;;36.97;28.54
28628;BME280;15815;46.760;19.604;2023-08-01T10:33:41;99462.38;;;36.86;27.64
28628;BME280;15815;46.760;19.604;2023-08-01T10:36:14;99458.72;;;36.68;27.00
28628;BME280;15815;46.760;19.604;2023-08-01T10:39:06;99443.75;;;36.10;27.58
28628;BME280;15815;46.760;19.604;2023-08-01T10:41:35;99450.13;;;35.99;28.00
28628;BME280;15815;46.760;19.604;2023-08-01T10:44:15;99444.53;;;35.41;27.33
28628;BME280;15815;46.760;19.604;2023-08-01T10:46:55;99434.00;;;35.21;27.87
28628;BME280;15815;46.760;19.604;2023-08-01T10:49:36;99438.28;;;35.20;28.95
28628;BME280;15815;46.760;19.604;2023-08-01T10:52:03;99446.25;;;34.45;28.59
28628;BME280;15815;46.760;19.604;2023-08-01T10:54:29;99441.34;;;34.15;30.24
28628;BME280;15815;46.760;19.604;2023-08-01T10:56:58;99412.69;;;34.36;29.31
28628;BME280;15815;46.760;19.604;2023-08-01T10:59:23;99433.72;;;34.59;29.14
28628;BME280;15815;46.760;19.604;2023-08-01T11:01:53;99422.88;;;33.72;29.75
28628;BME280;15815;46.760;19.604;2023-08-01T11:04:20;99408.13;;;33.70;29.82
28628;BME280;15815;46.760;19.604;2023-08-01T11:06:48;99413.31;;;33.79;30.46
28628;BME280;15815;46.760;19.604;2023-08-01T11:09:25;99402.19;;;33.22;29.37
28628;BME280;15815;46.760;19.604;2023-08-01T11:11:53;99403.19;;;33.17;30.74
28628;BME280;15815;46.760;19.604;2023-08-01T11:14:24;99395.59;;;33.14;29.95
28628;BME280;15815;46.760;19.604;2023-08-01T11:16:51;99389.56;;;33.42;29.32
28628;BME280;15815;46.760;19.604;2023-08-01T11:19:24;99373.44;;;33.34;29.38
28628;BME280;15815;46.760;19.604;2023-08-01T11:21:50;99384.31;;;33.33;30.38
28628;BME280;15815;46.760;19.604;2023-08-01T11:24:17;99387.88;;;32.94;30.30
28628;BME280;15815;46.760;19.604;2023-08-01T11:26:44;99371.97;;;32.79;31.30
28628;BME280;15815;46.760;19.604;2023-08-01T11:29:11;99381.88;;;32.92;29.96
28628;BME280;15815;46.760;19.604;2023-08-01T11:31:36;99362.28;;;32.92;30.99
28628;BME280;15815;46.760;19.604;2023-08-01T11:34:02;99374.09;;;32.94;30.83
28628;BME280;15815;46.760;19.604;2023-08-01T11:36:28;99364.97;;;32.67;30.17
28628;BME280;15815;46.760;19.604;2023-08-01T11:38:58;99361.69;;;32.94;30.55
28628;BME280;15815;46.760;19.604;2023-08-01T11:41:26;99350.03;;;32.94;30.18
28628;BME280;15815;46.760;19.604;2023-08-01T11:43:52;99343.16;;;33.29;30.48
28628;BME280;15815;46.760;19.604;2023-08-01T11:46:17;99342.88;;;32.79;30.38
28628;BME280;15815;46.760;19.604;2023-08-01T11:48:46;99338.22;;;32.61;30.13
28628;BME280;15815;46.760;19.604;2023-08-01T11:51:12;99346.31;;;32.24;29.24
28628;BME280;15815;46.760;19.604;2023-08-01T11:53:38;99334.91;;;32.42;31.01
28628;BME280;15815;46.760;19.604;2023-08-01T11:56:03;99322.69;;;32.28;29.59
28628;BME280;15815;46.760;19.604;2023-08-01T11:58:30;99319.22;;;32.60;29.77
28628;BME280;15815;46.760;19.604;2023-08-01T12:01:10;99327.72;;;32.73;29.63
28628;BME280;15815;46.760;19.604;2023-08-01T12:03:53;99321.13;;;32.27;29.96
28628;BME280;15815;46.760;19.604;2023-08-01T12:06:23;99312.03;;;32.53;30.56
28628;BME280;15815;46.760;19.604;2023-08-01T12:08:51;99303.13;;;32.44;30.92
28628;BME280;15815;46.760;19.604;2023-08-01T12:13:43;99284.09;;;32.20;30.91
28628;BME280;15815;46.760;19.604;2023-08-01T12:16:12;99297.09;;;32.49;29.51
28628;BME280;15815;46.760;19.604;2023-08-01T12:18:38;99293.19;;;32.77;29.49
28628;BME280;15815;46.760;19.604;2023-08-01T12:21:04;99297.69;;;32.48;29.95
28628;BME280;15815;46.760;19.604;2023-08-01T12:23:30;99281.59;;;32.32;30.13
28628;BME280;15815;46.760;19.604;2023-08-01T12:25:55;99278.69;;;32.32;30.23
28628;BME280;15815;46.760;19.604;2023-08-01T12:28:21;99280.66;;;32.37;30.58
28628;BME280;15815;46.760;19.604;2023-08-01T12:30:46;99279.09;;;32.36;30.67
28628;BME280;15815;46.760;19.604;2023-08-01T12:33:12;99257.53;;;32.23;30.09
28628;BME280;15815;46.760;19.604;2023-08-01T12:35:41;99263.94;;;32.30;30.63
28628;BME280;15815;46.760;19.604;2023-08-01T12:38:09;99259.09;;;32.55;30.40
28628;BME280;15815;46.760;19.604;2023-08-01T12:40:34;99263.75;;;32.27;29.87
28628;BME280;15815;46.760;19.604;2023-08-01T12:43:00;99247.47;;;32.55;29.56
28628;BME280;15815;46.760;19.604;2023-08-01T12:45:25;99223.84;;;32.36;30.16
28628;BME280;15815;46.760;19.604;2023-08-01T12:47:51;99237.97;;;32.32;30.20
28628;BME280;15815;46.760;19.604;2023-08-01T12:50:19;99240.88;;;32.09;30.63